Time;durP1;ratioP1;P1;durP2;ratioP2;P2;SDS_P1;SDS_P2;PMS_P1;PMS_P2;Temp;Humidity;BMP_temperature;BMP_pressure;BME280_temperature;BME280_humidity;BME280_pressure;Samples;Min_cycle;Max_cycle;Signal;HPM_P1;HPM_P2
2023/10/29 00:00:44;;;;;;;1.05;0.80;;;9.40;99.90;;;;;;4976742;28;20019;-77
2023/10/29 00:03:10;;;;;;;4.75;0.75;;;9.30;99.90;;;;;;4976589;28;20077;-79
2023/10/29 00:05:36;;;;;;;6.25;0.80;;;9.30;99.90;;;;;;4975153;28;20027;-81
2023/10/29 00:08:02;;;;;;;1.90;0.75;;;9.20;99.90;;;;;;4975893;28;20038;-79
2023/10/29 00:10:28;;;;;;;1.95;0.63;;;9.10;99.90;;;;;;4976958;28;20038;-81
2023/10/29 00:12:54;;;;;;;5.90;0.80;;;9.00;99.90;;;;;;4977149;28;20050;-81
2023/10/29 00:15:20;;;;;;;0.80;0.80;;;8.90;99.90;;;;;;4969951;28;20027;-81
2023/10/29 00:22:56;;;;;;;2.60;0.70;;;8.80;99.90;;;;;;5580383;23;20058;-79
2023/10/29 00:25:22;;;;;;;2.72;0.77;;;8.70;99.90;;;;;;4997233;28;20041;-81
2023/10/29 00:27:48;;;;;;;1.27;0.95;;;8.70;99.90;;;;;;4988778;28;20033;-80
2023/10/29 00:30:13;;;;;;;1.17;0.70;;;8.70;99.90;;;;;;4987305;28;20026;-79
2023/10/29 00:32:39;;;;;;;0.60;0.60;;;8.70;99.90;;;;;;4989557;28;20126;-79
2023/10/29 00:35:05;;;;;;;1.88;0.90;;;8.70;99.90;;;;;;4986687;28;20030;-78
2023/10/29 00:37:30;;;;;;;4.05;0.80;;;8.70;99.90;;;;;;4986785;28;20026;-80
2023/10/29 00:39:57;;;;;;;0.70;0.60;;;8.60;99.90;;;;;;4983404;28;20061;-79
2023/10/29 00:42:23;;;;;;;7.07;0.85;;;8.70;99.90;;;;;;5002249;28;20027;-80
2023/10/29 00:44:49;;;;;;;1.92;0.88;;;8.60;99.90;;;;;;4983071;28;20467;-79
2023/10/29 00:47:15;;;;;;;4.55;1.10;;;8.60;99.90;;;;;;4994058;28;20019;-81
2023/10/29 00:49:40;;;;;;;1.38;1.20;;;8.50;99.90;;;;;;5007892;28;20107;-80
2023/10/29 00:52:06;;;;;;;1.80;0.80;;;8.60;99.90;;;;;;4987339;28;20475;-80
2023/10/29 00:54:32;;;;;;;2.20;0.98;;;8.50;99.90;;;;;;4985570;28;20022;-80
2023/10/29 00:56:58;;;;;;;2.75;0.95;;;8.60;99.90;;;;;;5002992;28;20041;-79
2023/10/29 00:59:27;;;;;;;4.20;1.52;;;8.60;99.90;;;;;;4987879;28;20030;-79
2023/10/29 01:01:53;;;;;;;1.83;1.38;;;8.50;99.90;;;;;;4984541;28;20026;-79
2023/10/29 01:04:19;;;;;;;0.95;0.80;;;8.40;99.90;;;;;;4983488;28;20038;-79
2023/10/29 01:06:47;;;;;;;0.70;0.70;;;8.30;99.90;;;;;;4990009;28;20049;-79
2023/10/29 01:09:14;;;;;;;1.08;0.98;;;8.20;99.90;;;;;;4982968;28;20045;-79
2023/10/29 01:11:40;;;;;;;2.10;1.45;;;8.20;99.90;;;;;;4984132;28;20032;-78
2023/10/29 01:14:06;;;;;;;5.97;1.35;;;8.10;99.90;;;;;;4987394;28;20109;-79
2023/10/29 01:16:33;;;;;;;3.05;1.08;;;8.20;99.90;;;;;;4983899;28;20526;-78
2023/10/29 01:18:58;;;;;;;2.10;0.90;;;8.10;99.90;;;;;;4983967;28;20533;-77
2023/10/29 01:21:28;;;;;;;5.82;1.17;;;8.10;99.90;;;;;;4991863;28;20022;-79
2023/10/29 01:23:53;;;;;;;3.58;1.13;;;8.00;99.90;;;;;;4991498;28;20046;-79
2023/10/29 01:26:19;;;;;;;3.60;1.25;;;8.00;99.90;;;;;;5002911;28;20080;-79
2023/10/29 06:34:05;;;;;;;0.40;0.40;;;16.70;81.10;;;;;;5423739;23;20046;-85
2023/10/29 07:52:06;;;;;;;1.35;0.40;;;16.60;84.00;;;;;;5389590;23;20038;-79
2023/10/29 07:54:42;;;;;;;0.20;0.20;;;17.40;85.20;;;;;;4996825;28;20030;-79
2023/10/29 07:57:08;;;;;;;1.17;0.73;;;17.40;85.10;;;;;;4997596;28;20018;-80
2023/10/29 07:59:34;;;;;;;1.13;0.90;;;17.40;85.20;;;;;;4996846;28;20022;-80
2023/10/29 08:01:59;;;;;;;0.88;0.88;;;17.30;85.50;;;;;;4996418;28;20026;-80
2023/10/29 08:04:29;;;;;;;1.27;0.98;;;17.40;85.30;;;;;;4998298;28;20094;-80
2023/10/29 08:06:55;;;;;;;1.42;0.57;;;17.40;86.60;;;;;;4996484;28;20026;-81
2023/10/29 08:09:21;;;;;;;3.15;1.45;;;17.40;87.40;;;;;;4993990;28;20040;-80
2023/10/29 08:11:48;;;;;;;0.95;0.52;;;17.40;86.80;;;;;;5011257;28;20210;-79
2023/10/29 08:14:14;;;;;;;0.47;0.47;;;17.50;85.60;;;;;;4994788;28;20046;-78
2023/10/29 08:16:41;;;;;;;0.30;0.30;;;17.70;83.80;;;;;;4993934;28;20033;-79
2023/10/29 08:19:07;;;;;;;1.23;0.45;;;17.90;81.30;;;;;;4995898;28;20022;-77
2023/10/29 08:21:33;;;;;;;0.57;0.40;;;18.20;82.00;;;;;;4997194;28;20018;-78
2023/10/29 08:23:59;;;;;;;0.60;0.60;;;18.30;80.10;;;;;;4998326;28;20085;-80
2023/10/29 08:26:29;;;;;;;0.40;0.40;;;18.40;79.80;;;;;;4998310;28;20122;-78
2023/10/29 08:28:56;;;;;;;4.57;0.43;;;18.50;79.70;;;;;;5012695;28;20022;-79
2023/10/29 08:31:22;;;;;;;0.73;0.32;;;18.50;78.80;;;;;;5013381;28;20030;-80
2023/10/29 08:33:50;;;;;;;0.43;0.30;;;18.50;79.10;;;;;;5013297;28;20014;-81
2023/10/29 08:36:16;;;;;;;4.30;0.73;;;18.50;77.90;;;;;;4997565;28;20030;-81
2023/10/29 08:38:42;;;;;;;2.10;0.55;;;18.60;78.80;;;;;;4992327;28;20018;-84
2023/10/29 08:41:17;;;;;;;1.13;0.30;;;18.60;78.00;;;;;;4990075;28;20037;-79
2023/10/29 08:43:44;;;;;;;0.88;0.40;;;18.70;76.60;;;;;;4992804;28;20413;-81
2023/10/29 08:46:10;;;;;;;0.30;0.30;;;18.70;79.60;;;;;;4989342;28;20336;-81
2023/10/29 08:48:36;;;;;;;1.15;0.52;;;18.70;78.90;;;;;;4989118;28;20098;-82
2023/10/29 08:51:01;;;;;;;0.40;0.40;;;18.80;78.30;;;;;;4987929;28;20166;-78
2023/10/29 08:53:27;;;;;;;1.48;0.70;;;18.70;79.20;;;;;;4991010;28;20025;-78
2023/10/29 08:55:57;;;;;;;1.15;0.47;;;18.80;77.50;;;;;;5011142;28;20085;-78
2023/10/29 08:58:23;;;;;;;1.23;0.35;;;18.80;76.70;;;;;;5007449;28;20042;-82
2023/10/29 09:00:48;;;;;;;2.40;0.60;;;18.90;74.40;;;;;;5008740;28;20019;-78
2023/10/29 09:03:14;;;;;;;1.65;0.60;;;19.00;75.50;;;;;;4989207;28;20344;-79
2023/10/29 09:05:40;;;;;;;0.55;0.50;;;19.10;75.20;;;;;;4990167;28;20266;-79
2023/10/29 09:08:06;;;;;;;2.83;0.98;;;19.20;75.60;;;;;;5008616;28;20081;-80
2023/10/29 09:10:32;;;;;;;3.28;2.40;;;19.20;75.40;;;;;;5005766;28;20034;-80
2023/10/29 09:12:58;;;;;;;1.58;1.13;;;19.20;74.40;;;;;;4988645;28;20085;-80
2023/10/29 09:15:31;;;;;;;2.40;1.42;;;19.20;76.90;;;;;;4992287;28;20034;-80
2023/10/29 09:17:56;;;;;;;1.33;0.70;;;19.00;77.70;;;;;;4989373;28;20089;-81
2023/10/29 09:20:22;;;;;;;1.23;0.80;;;18.90;76.10;;;;;;4989731;28;20206;-80
2023/10/29 09:22:47;;;;;;;1.23;0.90;;;18.90;78.00;;;;;;5006104;28;20022;-80
2023/10/29 09:25:13;;;;;;;2.25;0.50;;;19.00;76.90;;;;;;4991212;28;20022;-81
2023/10/29 09:27:41;;;;;;;3.30;0.93;;;19.00;75.50;;;;;;5007931;28;20026;-81
2023/10/29 09:30:07;;;;;;;0.98;0.55;;;19.10;77.30;;;;;;4985230;28;20034;-81
2023/10/29 09:32:35;;;;;;;2.58;1.30;;;19.10;81.90;;;;;;4992663;28;20091;-78
2023/10/29 09:35:04;;;;;;;4.70;1.55;;;18.60;87.40;;;;;;4998469;28;20041;-78
2023/10/29 09:37:32;;;;;;;3.72;1.38;;;17.80;88.70;;;;;;4994580;28;20015;-79
2023/10/29 09:39:58;;;;;;;2.85;1.63;;;16.90;90.50;;;;;;4988224;28;20026;-79
2023/10/29 09:42:32;;;;;;;3.55;2.25;;;16.50;91.20;;;;;;4991760;28;20025;-78
2023/10/29 09:44:59;;;;;;;5.07;1.90;;;16.20;92.40;;;;;;4994657;28;20030;-79
2023/10/29 09:47:27;;;;;;;2.53;1.80;;;16.10;93.20;;;;;;4994922;28;20021;-79
2023/10/29 09:49:56;;;;;;;1.98;1.50;;;16.20;93.50;;;;;;5011509;28;20038;-79
2023/10/29 09:52:32;;;;;;;6.63;2.10;;;16.30;94.00;;;;;;4998629;28;20046;-79
2023/10/29 09:55:02;;;;;;;2.67;2.25;;;16.30;95.00;;;;;;4989755;28;20058;-79
2023/10/29 09:57:30;;;;;;;5.22;1.88;;;16.20;94.50;;;;;;5010555;28;20053;-79
2023/10/29 09:59:56;;;;;;;3.72;2.10;;;16.20;94.70;;;;;;4993265;28;20014;-78
2023/10/29 10:02:26;;;;;;;3.03;2.20;;;16.20;94.20;;;;;;4996965;28;20081;-79
2023/10/29 10:04:53;;;;;;;3.25;2.35;;;16.30;94.40;;;;;;4996340;28;20019;-77
2023/10/29 10:07:21;;;;;;;3.03;2.00;;;16.20;94.40;;;;;;5007194;28;20029;-80
2023/10/29 10:09:52;;;;;;;4.35;2.35;;;16.30;95.60;;;;;;4993193;28;20026;-80
2023/10/29 10:12:18;;;;;;;1.55;1.45;;;16.40;94.80;;;;;;5012021;28;20015;-80
2023/10/29 10:14:43;;;;;;;2.63;1.50;;;16.50;95.10;;;;;;5008215;28;20081;-79
2023/10/29 10:17:12;;;;;;;2.65;1.40;;;16.50;94.70;;;;;;5006605;28;20026;-79
2023/10/29 10:19:39;;;;;;;5.28;1.50;;;16.50;94.60;;;;;;5005750;28;20055;-81
2023/10/29 10:22:06;;;;;;;2.72;1.70;;;16.30;94.20;;;;;;4985883;28;20030;-77
2023/10/29 10:24:51;;;;;;;4.90;1.55;;;16.40;94.80;;;;;;4989348;28;20026;-79
2023/10/29 10:27:18;;;;;;;3.75;1.55;;;16.30;93.70;;;;;;4994810;28;20030;-78
2023/10/29 10:29:45;;;;;;;4.35;1.50;;;16.20;93.90;;;;;;4995026;28;20030;-79
2023/10/29 10:32:11;;;;;;;2.75;2.55;;;16.30;94.80;;;;;;4992709;28;20026;-77
2023/10/29 10:34:49;;;;;;;5.88;2.78;;;16.20;94.70;;;;;;4998772;28;20025;-79
2023/10/29 10:37:17;;;;;;;2.17;1.48;;;16.40;94.90;;;;;;4991307;28;20018;-78
2023/10/29 10:40:20;;;;;;;2.70;1.55;;;16.50;93.20;;;;;;5011567;28;20006;-79
2023/10/29 10:42:55;;;;;;;4.65;1.80;;;16.30;93.70;;;;;;5007650;28;20034;-78
2023/10/29 10:45:28;;;;;;;3.90;2.42;;;16.40;94.50;;;;;;4982461;28;20030;-79
2023/10/29 10:48:03;;;;;;;4.95;2.72;;;16.50;94.30;;;;;;4981166;28;20562;-79
2023/10/29 10:50:30;;;;;;;5.70;2.40;;;16.50;93.50;;;;;;4983709;28;20041;-78
2023/10/29 10:52:57;;;;;;;3.20;2.50;;;16.40;93.90;;;;;;4998943;28;20451;-79
2023/10/29 10:55:24;;;;;;;3.50;2.35;;;16.40;95.00;;;;;;4998440;28;20098;-77
2023/10/29 10:57:50;;;;;;;2.35;2.08;;;16.40;94.40;;;;;;4994994;28;20050;-79
2023/10/29 11:00:17;;;;;;;3.38;1.90;;;16.20;94.00;;;;;;5010695;28;20069;-79
2023/10/29 11:02:44;;;;;;;7.90;1.85;;;16.20;94.40;;;;;;4995882;28;20081;-80
2023/10/29 11:05:11;;;;;;;3.45;1.45;;;16.30;94.50;;;;;;4976922;28;20053;-78
2023/10/29 11:07:38;;;;;;;3.88;1.90;;;16.60;94.40;;;;;;4977171;28;20027;-79
2023/10/29 11:10:06;;;;;;;3.47;1.80;;;16.80;94.10;;;;;;4980124;28;20030;-80
2023/10/29 11:12:39;;;;;;;2.72;1.67;;;16.90;93.80;;;;;;4980166;28;20093;-80
2023/10/29 11:15:21;;;;;;;2.40;1.70;;;16.90;94.50;;;;;;4980254;28;20129;-81
2023/10/29 11:18:00;;;;;;;3.78;1.67;;;16.80;94.80;;;;;;5000522;28;20023;-78
2023/10/29 11:20:41;;;;;;;2.08;1.50;;;16.80;94.50;;;;;;4997207;28;20059;-76
2023/10/29 11:26:21;;;;;;;7.07;3.30;;;16.50;95.90;;;;;;4996827;28;20066;-77
2023/10/29 11:28:52;;;;;;;3.17;2.00;;;16.40;95.30;;;;;;5005884;28;20030;-78
2023/10/29 11:31:23;;;;;;;2.55;2.13;;;16.40;96.40;;;;;;5002100;28;20038;-87
2023/10/29 11:34:08;;;;;;;5.40;2.72;;;16.30;95.50;;;;;;4987501;28;20026;-77
2023/10/29 11:36:47;;;;;;;4.13;2.60;;;16.40;96.50;;;;;;5002110;28;20505;-82
2023/10/29 11:39:22;;;;;;;4.88;2.92;;;16.60;96.20;;;;;;5015057;28;20034;-82
2023/10/29 11:41:52;;;;;;;5.20;2.88;;;16.60;95.30;;;;;;5010405;28;20030;-86
2023/10/29 11:44:20;;;;;;;6.68;1.85;;;16.70;95.80;;;;;;4987086;28;20026;-84
2023/10/29 11:47:06;;;;;;;1.77;1.67;;;16.90;95.10;;;;;;4991903;28;20022;-80
2023/10/29 11:49:44;;;;;;;2.35;1.50;;;16.90;94.80;;;;;;5010537;28;20046;-78
2023/10/29 11:52:10;;;;;;;3.85;1.40;;;17.10;93.90;;;;;;4998714;28;20137;-78
2023/10/29 11:54:45;;;;;;;2.92;1.40;;;17.20;93.80;;;;;;4996497;28;20022;-79
2023/10/29 11:57:13;;;;;;;2.13;1.35;;;17.20;92.90;;;;;;4994698;28;20222;-79
2023/10/29 11:59:55;;;;;;;3.08;1.60;;;17.50;93.40;;;;;;4992940;28;20456;-79
2023/10/29 12:02:22;;;;;;;2.75;1.40;;;17.70;93.60;;;;;;4989814;28;20033;-79
2023/10/29 12:04:47;;;;;;;3.90;2.35;;;17.90;93.90;;;;;;4987435;28;20037;-79
2023/10/29 12:07:26;;;;;;;7.65;2.10;;;18.20;93.00;;;;;;5003455;28;20241;-78
2023/10/29 12:10:04;;;;;;;3.17;2.28;;;18.50;92.20;;;;;;5005923;28;20034;-76
2023/10/29 12:12:30;;;;;;;8.85;2.40;;;18.70;92.30;;;;;;4989399;28;20026;-78
2023/10/29 12:14:56;;;;;;;2.42;1.50;;;19.00;93.10;;;;;;4989382;28;20018;-78
2023/10/29 12:17:22;;;;;;;4.32;1.67;;;19.00;91.30;;;;;;4989463;28;20347;-80
2023/10/29 12:19:47;;;;;;;6.75;1.55;;;19.10;91.50;;;;;;4988222;28;20018;-79
2023/10/29 12:22:18;;;;;;;7.30;2.20;;;19.00;92.00;;;;;;4991315;28;20022;-79
2023/10/29 12:24:44;;;;;;;3.63;1.35;;;19.10;92.00;;;;;;4994413;28;20030;-80
2023/10/29 12:27:31;;;;;;;6.72;1.17;;;18.90;92.30;;;;;;5014822;28;20049;-81
2023/10/29 12:29:57;;;;;;;2.33;1.42;;;18.70;92.40;;;;;;5015557;28;20026;-82
2023/10/29 12:32:26;;;;;;;1.38;1.27;;;18.40;93.50;;;;;;4995248;28;20046;-80
2023/10/29 12:35:13;;;;;;;1.38;1.30;;;18.20;93.90;;;;;;5003694;28;20100;-80
2023/10/29 12:37:45;;;;;;;4.75;2.17;;;18.00;95.70;;;;;;4993109;28;20022;-84
2023/10/29 12:40:12;;;;;;;2.78;1.30;;;18.00;95.20;;;;;;5000145;28;20106;-81
2023/10/29 12:42:54;;;;;;;5.28;1.40;;;17.90;96.30;;;;;;4992199;28;20045;-82
2023/10/29 12:49:04;;;;;;;2.15;0.73;;;18.00;96.10;;;;;;5490630;23;20057;-76
2023/10/29 12:51:43;;;;;;;1.00;0.90;;;17.90;95.40;;;;;;5019489;28;20018;-81
2023/10/29 12:54:29;;;;;;;0.70;0.70;;;19.30;92.60;;;;;;5015136;28;20022;-80
2023/10/29 12:57:12;;;;;;;1.45;0.80;;;18.00;91.30;;;;;;5012968;28;20026;-80
2023/10/29 13:00:08;;;;;;;1.67;0.50;;;18.20;90.80;;;;;;4995637;28;20019;-81
2023/10/29 13:02:46;;;;;;;1.15;0.25;;;18.40;87.20;;;;;;4995968;28;20030;-80
2023/10/29 13:05:13;;;;;;;0.55;0.30;;;18.90;83.00;;;;;;4997671;28;20114;-80
2023/10/29 13:07:41;;;;;;;3.42;0.40;;;19.20;81.90;;;;;;4997960;28;20021;-81
2023/10/29 13:10:07;;;;;;;1.00;0.25;;;19.40;83.30;;;;;;4991385;28;20203;-82
2023/10/29 13:12:33;;;;;;;0.82;0.30;;;19.50;82.60;;;;;;4989919;28;20023;-83
2023/10/29 13:14:59;;;;;;;0.73;0.35;;;19.70;80.70;;;;;;4989393;28;20368;-81
2023/10/29 13:17:26;;;;;;;0.73;0.35;;;19.80;80.40;;;;;;5007833;28;20160;-87
2023/10/29 13:19:52;;;;;;;2.50;0.95;;;20.00;79.50;;;;;;5008432;28;20018;-82
2023/10/29 13:22:17;;;;;;;0.95;0.40;;;20.00;78.20;;;;;;4989168;28;20025;-86
2023/10/29 13:24:43;;;;;;;0.30;0.30;;;20.20;78.00;;;;;;4988527;28;20018;-84
2023/10/29 13:27:09;;;;;;;1.27;0.40;;;20.20;76.90;;;;;;4986447;28;20403;-85
2023/10/29 13:29:37;;;;;;;0.50;0.50;;;20.20;78.30;;;;;;4988466;28;20030;-85
2023/10/29 13:32:03;;;;;;;1.02;0.30;;;20.30;78.00;;;;;;4988922;28;20026;-86
2023/10/29 13:34:29;;;;;;;0.60;0.20;;;20.20;76.70;;;;;;5002068;28;20018;-86
2023/10/29 13:36:55;;;;;;;0.50;0.50;;;20.20;77.40;;;;;;4985425;28;20480;-84
2023/10/29 13:39:20;;;;;;;1.65;0.40;;;20.20;76.20;;;;;;5002704;28;20061;-82
2023/10/29 13:41:48;;;;;;;1.10;0.30;;;20.20;78.00;;;;;;4983667;28;20468;-83
2023/10/29 13:44:15;;;;;;;0.55;0.20;;;20.20;78.70;;;;;;4987408;28;20097;-84
2023/10/29 13:46:42;;;;;;;0.38;0.20;;;20.10;78.10;;;;;;4987187;28;20033;-82
2023/10/29 13:49:07;;;;;;;0.60;0.40;;;20.10;79.20;;;;;;4986578;28;20054;-82
2023/10/29 13:51:33;;;;;;;1.63;0.40;;;20.00;79.40;;;;;;5004311;28;20038;-83
2023/10/29 13:53:59;;;;;;;0.50;0.50;;;20.00;80.00;;;;;;4986832;28;20090;-83
2023/10/29 13:56:25;;;;;;;1.08;0.98;;;19.90;80.50;;;;;;4986562;28;20061;-83
2023/10/29 13:58:51;;;;;;;0.70;0.40;;;20.00;80.30;;;;;;4986312;28;20033;-84
2023/10/29 14:01:18;;;;;;;1.23;0.95;;;20.00;81.20;;;;;;4986447;28;20026;-85
2023/10/29 14:03:44;;;;;;;0.98;0.70;;;20.00;80.60;;;;;;4986489;28;20033;-83
2023/10/29 14:06:10;;;;;;;1.15;0.38;;;20.10;79.70;;;;;;4986286;28;20026;-84
2023/10/29 14:08:36;;;;;;;1.17;0.45;;;20.20;80.10;;;;;;4986631;28;20022;-84
2023/10/29 14:11:02;;;;;;;1.70;0.90;;;20.20;80.80;;;;;;4986463;28;20034;-84
2023/10/29 14:13:28;;;;;;;0.47;0.40;;;20.20;80.60;;;;;;5003604;28;20019;-83
2023/10/29 14:15:58;;;;;;;0.55;0.50;;;20.10;80.60;;;;;;4986196;28;20026;-84
2023/10/29 14:18:24;;;;;;;1.73;0.50;;;20.10;80.10;;;;;;4986490;28;20322;-84
2023/10/29 14:20:50;;;;;;;0.88;0.40;;;20.10;79.90;;;;;;4986417;28;20042;-84
2023/10/29 14:23:15;;;;;;;3.33;0.65;;;20.00;79.80;;;;;;4986536;28;20026;-84
2023/10/29 14:25:42;;;;;;;2.10;0.47;;;20.00;79.90;;;;;;4986601;28;20371;-83
2023/10/29 14:28:08;;;;;;;0.30;0.30;;;19.90;80.70;;;;;;4986117;28;20018;-82
2023/10/29 14:33:22;;;;;;;2.83;0.50;;;19.80;77.10;;;;;;5009692;28;20025;-83
2023/10/29 14:37:01;;;;;;;2.42;0.60;;;19.80;77.80;;;;;;4984657;28;20030;-81
2023/10/29 14:43:56;;;;;;;0.70;0.50;;;20.00;75.90;;;;;;4921886;29;20020;-81
2023/10/29 14:47:03;;;;;;;0.65;0.30;;;19.70;74.30;;;;;;4890648;29;20052;-82
2023/10/29 14:52:47;;;;;;;1.45;0.60;;;20.20;73.10;;;;;;4894640;29;20044;-82
2023/10/29 14:55:43;;;;;;;0.95;0.40;;;20.20;73.60;;;;;;4907821;29;20033;-83
2023/10/29 14:58:17;;;;;;;0.30;0.30;;;20.20;72.70;;;;;;4872407;29;20045;-84
2023/10/29 15:11:56;;;;;;;2.03;0.50;;;20.10;70.30;;;;;;4960037;28;20034;-82
2023/10/29 15:15:26;;;;;;;1.88;0.30;;;20.30;70.70;;;;;;4957236;28;20087;-80
2023/10/29 15:18:28;;;;;;;0.57;0.57;;;19.70;70.30;;;;;;4878383;29;20040;-82
2023/10/29 15:25:31;;;;;;;0.82;0.30;;;20.70;68.90;;;;;;4903463;29;20129;-81
2023/10/29 15:28:39;;;;;;;0.75;0.45;;;20.80;69.10;;;;;;4887536;29;20053;-81
2023/10/29 15:34:48;;;;;;;0.30;0.30;;;19.70;68.10;;;;;;4914678;29;20053;-81
2023/10/29 15:38:09;;;;;;;0.85;0.45;;;20.70;68.00;;;;;;4921890;29;20017;-82
2023/10/29 15:48:35;;;;;;;1.25;0.30;;;20.80;68.20;;;;;;4873497;29;20093;-82
2023/10/29 15:54:39;;;;;;;1.10;0.47;;;20.60;68.40;;;;;;4995285;28;20077;-81
2023/10/29 15:57:14;;;;;;;4.03;0.35;;;20.60;68.60;;;;;;4988570;28;20390;-82
2023/10/29 15:59:40;;;;;;;1.45;0.30;;;20.50;69.70;;;;;;4968837;28;20030;-85
2023/10/29 16:02:05;;;;;;;2.63;0.50;;;20.40;68.90;;;;;;4968900;28;20054;-85
2023/10/29 16:04:33;;;;;;;1.92;0.45;;;20.40;69.60;;;;;;4969029;28;20026;-82
2023/10/29 16:06:59;;;;;;;0.90;0.35;;;20.20;70.30;;;;;;4969138;28;20031;-83
2023/10/29 16:09:25;;;;;;;1.95;0.38;;;20.20;70.50;;;;;;4986667;28;20026;-82
2023/10/29 16:11:51;;;;;;;1.33;0.50;;;20.10;70.60;;;;;;4968605;28;20078;-81
2023/10/29 16:14:17;;;;;;;0.45;0.25;;;20.10;69.10;;;;;;4969123;28;20097;-82
2023/10/29 16:16:44;;;;;;;1.08;0.30;;;20.10;70.30;;;;;;4969418;28;20033;-83
2023/10/29 16:19:09;;;;;;;2.17;0.43;;;20.10;69.50;;;;;;4969286;28;20023;-83
2023/10/29 16:21:35;;;;;;;1.83;0.57;;;20.10;70.20;;;;;;4991977;28;20034;-83
2023/10/29 16:24:03;;;;;;;0.82;0.52;;;20.10;69.50;;;;;;4974088;28;20050;-84
2023/10/29 16:26:29;;;;;;;0.85;0.45;;;20.00;69.50;;;;;;4970572;28;20042;-83
2023/10/29 16:29:11;;;;;;;2.35;0.85;;;20.00;70.10;;;;;;4992447;28;20086;-82
2023/10/29 16:31:40;;;;;;;1.08;0.80;;;20.00;70.80;;;;;;4975031;28;20342;-83
2023/10/29 16:34:21;;;;;;;3.60;0.80;;;20.00;69.80;;;;;;4973529;28;20031;-81
2023/10/29 16:37:07;;;;;;;2.40;0.55;;;20.00;68.70;;;;;;4968145;28;20034;-85
2023/10/29 16:39:35;;;;;;;2.97;0.47;;;20.10;69.50;;;;;;4969951;28;20019;-87
2023/10/29 16:42:01;;;;;;;0.93;0.75;;;20.10;68.60;;;;;;4969338;28;20023;-83
2023/10/29 16:44:29;;;;;;;1.38;0.50;;;20.10;69.80;;;;;;4968246;28;20097;-84
2023/10/29 16:46:55;;;;;;;2.90;0.47;;;20.00;69.70;;;;;;4968377;28;20034;-83
2023/10/29 16:49:21;;;;;;;2.28;0.50;;;19.90;69.70;;;;;;4967934;28;20146;-86
2023/10/29 16:51:46;;;;;;;0.88;0.40;;;19.90;70.40;;;;;;4979175;28;20054;-83
2023/10/29 16:54:12;;;;;;;0.52;0.40;;;19.70;71.80;;;;;;4987926;28;20030;-82
2023/10/29 16:56:40;;;;;;;3.92;0.60;;;19.50;71.90;;;;;;4987476;28;20026;-85
2023/10/29 16:59:06;;;;;;;0.70;0.32;;;19.40;72.20;;;;;;4987895;28;20019;-83
2023/10/29 17:01:33;;;;;;;0.45;0.30;;;19.40;71.90;;;;;;4987700;28;20030;-83
2023/10/29 17:04:00;;;;;;;1.80;0.60;;;19.30;72.60;;;;;;4987430;28;20023;-83
2023/10/29 17:06:25;;;;;;;0.88;0.40;;;19.20;72.20;;;;;;4987058;28;20330;-83
2023/10/29 17:08:51;;;;;;;2.42;0.65;;;19.20;72.40;;;;;;5004682;28;20085;-84
2023/10/29 17:11:17;;;;;;;0.65;0.40;;;19.10;72.60;;;;;;4987299;28;20072;-83
2023/10/29 17:13:42;;;;;;;1.13;0.45;;;19.10;71.50;;;;;;4987646;28;20034;-83
2023/10/29 17:16:08;;;;;;;1.40;0.40;;;19.10;74.00;;;;;;4989066;28;20374;-83
2023/10/29 17:18:34;;;;;;;11.15;2.22;;;19.00;75.70;;;;;;4989079;28;20029;-83
2023/10/29 17:21:01;;;;;;;13.77;5.85;;;18.60;80.70;;;;;;4989335;28;20311;-87
2023/10/29 17:23:27;;;;;;;3.60;0.80;;;18.40;79.30;;;;;;4990124;28;20022;-85
2023/10/29 17:25:53;;;;;;;3.70;1.20;;;18.20;85.10;;;;;;4988631;28;20065;-84
2023/10/29 17:28:19;;;;;;;1.55;0.40;;;17.80;83.40;;;;;;4989524;28;20022;-83
2023/10/29 17:30:47;;;;;;;5.90;1.52;;;17.60;88.20;;;;;;4988622;28;20034;-83
2023/10/29 17:33:13;;;;;;;6.07;1.90;;;17.40;89.90;;;;;;4988632;28;20025;-81
2023/10/29 17:35:38;;;;;;;6.60;1.58;;;17.10;90.40;;;;;;4988174;28;20026;-82
2023/10/29 17:38:04;;;;;;;5.43;1.30;;;16.90;90.70;;;;;;4990885;28;20365;-84
2023/10/29 17:40:36;;;;;;;2.05;0.90;;;16.70;92.40;;;;;;4988808;28;20330;-83
2023/10/29 17:43:08;;;;;;;3.15;0.68;;;16.50;93.40;;;;;;4992351;28;20029;-81
2023/10/29 17:45:37;;;;;;;0.75;0.60;;;16.40;93.30;;;;;;4973422;28;20034;-81
2023/10/29 17:48:05;;;;;;;0.57;0.52;;;16.20;93.20;;;;;;4989966;28;20029;-81
2023/10/29 17:50:41;;;;;;;1.58;0.30;;;16.10;92.90;;;;;;5014287;28;20042;-81
2023/10/29 17:53:10;;;;;;;24.63;12.27;;;16.00;92.80;;;;;;5016785;28;20045;-81
2023/10/29 17:55:36;;;;;;;1.83;1.17;;;16.00;93.70;;;;;;5013819;28;20022;-82
2023/10/29 17:58:29;;;;;;;0.68;0.50;;;16.00;93.30;;;;;;4993802;28;20065;-81
2023/10/29 18:00:56;;;;;;;2.53;0.60;;;15.90;95.20;;;;;;5011101;28;20061;-81
2023/10/29 18:03:25;;;;;;;3.08;0.60;;;15.80;96.10;;;;;;4992538;28;20032;-81
2023/10/29 18:05:52;;;;;;;3.10;0.50;;;15.70;97.20;;;;;;4975608;28;20098;-81
2023/10/29 18:08:24;;;;;;;2.17;0.80;;;15.50;98.80;;;;;;5016496;28;20022;-80
2023/10/29 18:10:53;;;;;;;2.58;1.25;;;15.10;97.40;;;;;;4998447;28;20054;-80
2023/10/29 18:13:21;;;;;;;0.95;0.82;;;16.10;98.70;;;;;;4999002;28;20041;-80
2023/10/29 18:15:53;;;;;;;0.90;0.70;;;16.20;99.10;;;;;;4983049;28;20071;-80
2023/10/29 18:18:23;;;;;;;9.20;1.10;;;16.20;99.90;;;;;;4999095;28;20018;-80
2023/10/29 18:20:53;;;;;;;2.88;0.90;;;16.30;99.90;;;;;;4998454;28;20014;-80
2023/10/29 18:23:28;;;;;;;3.75;0.88;;;16.20;99.90;;;;;;4998526;28;20034;-80
2023/10/29 18:25:57;;;;;;;2.78;1.02;;;16.20;99.90;;;;;;4993401;28;20038;-80
2023/10/29 18:28:23;;;;;;;5.30;1.88;;;16.10;99.90;;;;;;5012626;28;20022;-80
2023/10/29 18:30:56;;;;;;;2.50;0.82;;;16.10;99.90;;;;;;5013921;28;20041;-80
2023/10/29 18:33:32;;;;;;;4.97;1.50;;;16.10;99.90;;;;;;5010742;28;20037;-81
2023/10/29 18:36:15;;;;;;;1.58;1.02;;;16.00;99.90;;;;;;5013464;28;20050;-80
2023/10/29 18:38:44;;;;;;;3.22;1.50;;;16.10;99.90;;;;;;4997399;28;20033;-80
2023/10/29 18:41:18;;;;;;;5.40;0.97;;;16.70;99.90;;;;;;5012896;28;20031;-80
2023/10/29 18:43:46;;;;;;;2.55;1.10;;;15.90;99.90;;;;;;4993558;28;20046;-80
2023/10/29 18:49:35;;;;;;;7.25;1.45;;;15.40;99.90;;;;;;5478698;23;20038;-80
2023/10/29 18:52:04;;;;;;;4.28;1.10;;;15.60;99.90;;;;;;5000310;28;20023;-79
2023/10/29 18:54:33;;;;;;;;;;;15.60;99.90;;;;;;5016846;28;20026;-79
2023/10/29 18:57:00;;;;;;;4.00;1.80;;;15.50;99.90;;;;;;5016694;28;19933;-80
2023/10/29 19:13:26;;;;;;;5.88;1.45;;;15.10;99.90;;;;;;4865901;29;20080;-82
2023/10/29 19:19:42;;;;;;;7.53;1.50;;;15.00;99.90;;;;;;5199437;23;20110;-82
2023/10/29 19:32:29;;;;;;;2.25;1.30;;;15.00;99.90;;;;;;5934886;23;20074;-79
2023/10/29 19:35:01;;;;;;;7.40;1.88;;;14.90;99.90;;;;;;5253530;23;20061;-81
2023/10/29 19:38:10;;;;;;;2.22;1.67;;;15.00;99.90;;;;;;5012631;28;20045;-81
2023/10/29 22:37:59;;;;;;;7.43;2.13;;;13.40;99.90;;;;;;5057103;23;20034;-80
2023/10/29 22:40:26;;;;;;;4.95;2.63;;;12.90;99.90;;;;;;4978778;28;20031;-81
2023/10/29 22:43:00;;;;;;;6.38;3.08;;;12.70;99.90;;;;;;4980006;28;20065;-79
2023/10/29 23:09:51;;;;;;;8.18;2.20;;;12.10;99.90;;;;;;5406640;23;20054;-80
2023/10/29 23:12:21;;;;;;;8.90;2.90;;;12.00;99.90;;;;;;5362302;23;20119;-80
2023/10/29 23:23:15;;;;;;;11.20;2.78;;;11.70;99.90;;;;;;5164918;23;20065;-82
2023/10/29 23:54:59;;;;;;;13.45;3.05;;;11.20;99.90;;;;;;4998616;28;20037;-81
